createdAt,value
2019-02-10T00:00:46.227Z,99460.80
2019-02-10T00:03:14.748Z,99454.84
2019-02-10T00:05:43.212Z,99459.39
2019-02-10T00:08:11.669Z,99466.41
2019-02-10T00:10:40.359Z,99459.42
2019-02-10T00:13:29.260Z,99465.09
2019-02-10T00:16:03.648Z,99461.21
2019-02-10T00:18:32.171Z,99460.69
2019-02-10T00:21:00.776Z,99469.84
2019-02-10T00:23:29.371Z,99467.57
2019-02-10T00:25:57.850Z,99470.64
2019-02-10T00:28:26.306Z,99474.45
2019-02-10T00:30:54.816Z,99467.16
2019-02-10T00:33:23.263Z,99469.91
2019-02-10T00:35:51.721Z,99473.42
2019-02-10T00:38:20.219Z,99470.39
2019-02-10T00:40:48.674Z,99474.48
2019-02-10T00:43:17.258Z,99470.66
2019-02-10T00:45:45.795Z,99470.77
2019-02-10T00:48:14.251Z,99473.92
2019-02-10T00:50:42.712Z,99477.59
2019-02-10T00:53:11.232Z,99481.03
2019-02-10T00:55:39.697Z,99483.73
2019-02-10T00:58:08.266Z,99481.22
2019-02-10T01:00:36.779Z,99484.79
2019-02-10T01:03:05.565Z,99480.08
2019-02-10T01:05:34.012Z,99481.89
2019-02-10T01:08:02.502Z,99477.20
2019-02-10T01:10:31.327Z,99476.34
2019-02-10T01:12:59.851Z,99475.04
2019-02-10T01:15:28.352Z,99474.56
2019-02-10T01:17:56.876Z,99479.44
2019-02-10T01:20:26.608Z,99479.44
2019-02-10T01:22:55.110Z,99480.41
2019-02-10T01:25:23.655Z,99483.92
2019-02-10T01:27:52.141Z,99480.41
2019-02-10T01:30:20.689Z,99479.23
2019-02-10T01:32:49.138Z,99469.03
2019-02-10T01:35:17.589Z,99473.39
2019-02-10T01:37:46.094Z,99465.65
2019-02-10T01:40:14.549Z,99465.65
2019-02-10T01:42:43.007Z,99462.86
2019-02-10T01:45:12.789Z,99461.91
2019-02-10T01:47:41.996Z,99461.91
2019-02-10T01:50:11.684Z,99465.34
2019-02-10T01:52:40.177Z,99453.06
2019-02-10T01:55:13.250Z,99453.77
2019-02-10T01:57:41.966Z,99455.99
2019-02-10T02:00:13.344Z,99455.99
2019-02-10T02:02:41.872Z,99450.57
2019-02-10T02:05:10.737Z,99453.02
2019-02-10T02:07:39.326Z,99459.03
2019-02-10T02:10:10.727Z,99457.35
2019-02-10T02:12:39.171Z,99457.83
2019-02-10T02:15:10.720Z,99455.22
2019-02-10T02:17:39.160Z,99463.98
2019-02-10T02:20:09.646Z,99452.33
2019-02-10T02:22:38.318Z,99454.56
2019-02-10T02:25:08.769Z,99452.73
2019-02-10T02:27:37.455Z,99455.80
2019-02-10T02:30:11.764Z,99453.19
2019-02-10T02:32:40.341Z,99452.36
2019-02-10T02:35:09.614Z,99448.09
2019-02-10T02:37:38.057Z,99443.76
2019-02-10T02:40:09.309Z,99449.05
2019-02-10T02:42:37.829Z,99438.60
2019-02-10T02:45:08.916Z,99442.62
2019-02-10T02:47:37.482Z,99441.38
2019-02-10T02:50:08.483Z,99437.52
2019-02-10T02:52:36.936Z,99436.22
2019-02-10T02:55:06.974Z,99435.33
2019-02-10T02:57:35.488Z,99434.47
2019-02-10T03:00:04.674Z,99427.14
2019-02-10T03:02:33.205Z,99420.23
2019-02-10T03:05:01.651Z,99424.17
2019-02-10T03:07:30.101Z,99423.28
2019-02-10T03:09:58.621Z,99418.03
2019-02-10T03:12:27.093Z,99418.00
2019-02-10T03:14:55.546Z,99418.38
2019-02-10T03:17:24.027Z,99415.22
2019-02-10T03:19:52.531Z,99409.55
2019-02-10T03:22:20.972Z,99407.70
2019-02-10T03:24:49.475Z,99403.69
2019-02-10T03:27:18.036Z,99409.66
2019-02-10T03:29:47.534Z,99400.94
2019-02-10T03:32:16.024Z,99401.00
2019-02-10T03:34:44.496Z,99401.00
2019-02-10T03:37:13.033Z,99397.08
2019-02-10T03:39:41.535Z,99397.16
2019-02-10T03:42:10.094Z,99401.58
2019-02-10T03:44:38.617Z,99404.74
2019-02-10T03:47:07.123Z,99401.30
2019-02-10T03:49:35.567Z,99403.09
2019-02-10T03:52:04.120Z,99399.69
2019-02-10T03:54:32.761Z,99394.91
2019-02-10T03:57:01.206Z,99391.91
2019-02-10T03:59:29.991Z,99391.95
2019-02-10T04:01:58.560Z,99388.92
2019-02-10T04:04:27.019Z,99381.67
2019-02-10T04:06:55.474Z,99387.78
2019-02-10T04:09:23.954Z,99384.00
2019-02-10T04:11:52.605Z,99378.48
2019-02-10T04:14:21.087Z,99381.09
2019-02-10T04:16:49.687Z,99380.81
2019-02-10T04:19:18.207Z,99381.30
2019-02-10T04:21:46.667Z,99378.30
2019-02-10T04:24:15.180Z,99383.52
2019-02-10T04:26:43.632Z,99377.95
2019-02-10T04:29:12.120Z,99377.95
2019-02-10T04:31:40.607Z,99379.67
2019-02-10T04:34:09.081Z,99376.73
2019-02-10T04:36:37.543Z,99371.70
2019-02-10T04:39:06.316Z,99371.70
2019-02-10T04:41:34.766Z,99373.90
2019-02-10T04:44:03.213Z,99376.39
2019-02-10T04:46:31.697Z,99376.39
2019-02-10T04:49:00.178Z,99375.63
2019-02-10T04:51:28.647Z,99369.64
2019-02-10T04:53:58.127Z,99369.66
2019-02-10T04:56:26.574Z,99366.73
2019-02-10T04:58:55.036Z,99365.06
2019-02-10T05:01:23.537Z,99352.50
2019-02-10T05:03:52.059Z,99353.06
2019-02-10T05:06:20.677Z,99352.29
2019-02-10T05:08:49.188Z,99355.45
2019-02-10T05:11:17.640Z,99350.83
2019-02-10T05:13:46.194Z,99357.86
2019-02-10T05:16:14.771Z,99357.95
2019-02-10T05:18:43.238Z,99355.39
2019-02-10T05:21:11.687Z,99345.47
2019-02-10T05:23:40.204Z,99341.89
2019-02-10T05:26:08.685Z,99339.67
2019-02-10T05:28:37.145Z,99334.84
2019-02-10T05:31:05.732Z,99333.55
2019-02-10T05:33:34.181Z,99332.24
2019-02-10T05:36:02.632Z,99331.33
2019-02-10T05:38:32.097Z,99337.79
2019-02-10T05:41:00.574Z,99336.02
2019-02-10T05:43:29.094Z,99331.16
2019-02-10T05:45:57.654Z,99328.52
2019-02-10T05:48:26.172Z,99332.10
2019-02-10T05:50:54.623Z,99330.80
2019-02-10T05:53:23.127Z,99324.81
2019-02-10T05:55:51.678Z,99318.05
2019-02-10T05:58:20.129Z,99327.67
2019-02-10T06:00:48.635Z,99329.86
2019-02-10T06:03:17.078Z,99319.55
2019-02-10T06:05:45.533Z,99329.60
2019-02-10T06:08:14.117Z,99320.09
2019-02-10T06:10:42.619Z,99322.39
2019-02-10T06:13:11.081Z,99321.09
2019-02-10T06:15:39.598Z,99321.09
2019-02-10T06:18:08.048Z,99314.66
2019-02-10T06:20:36.543Z,99313.38
2019-02-10T06:23:05.124Z,99309.19
2019-02-10T06:25:33.566Z,99309.11
2019-02-10T06:28:02.016Z,99302.98
2019-02-10T06:30:30.525Z,99306.03
2019-02-10T06:32:59.010Z,99303.41
2019-02-10T06:35:27.540Z,99296.91
2019-02-10T06:37:56.062Z,99299.44
2019-02-10T06:40:24.528Z,99293.73
2019-02-10T06:42:52.983Z,99307.45
2019-02-10T06:45:21.494Z,99304.80
2019-02-10T06:47:49.950Z,99307.34
2019-02-10T06:50:18.403Z,99305.55
2019-02-10T06:52:46.909Z,99309.28
2019-02-10T06:55:15.357Z,99299.22
2019-02-10T06:57:44.177Z,99293.50
2019-02-10T07:00:26.689Z,99292.55
2019-02-10T07:03:28.043Z,99287.22
2019-02-10T07:05:56.564Z,99279.70
2019-02-10T07:08:30.401Z,99273.44
2019-02-10T07:10:55.260Z,99270.70
2019-02-10T07:13:26.825Z,99270.55
2019-02-10T07:16:31.952Z,99267.75
2019-02-10T07:19:36.949Z,99265.39
2019-02-10T07:22:25.309Z,99258.12
2019-02-10T07:25:15.084Z,99259.13
2019-02-10T07:27:45.217Z,99255.42
2019-02-10T07:30:16.718Z,99251.63
2019-02-10T07:32:53.238Z,99252.58
2019-02-10T07:35:25.011Z,99255.34
2019-02-10T07:38:08.696Z,99250.27
2019-02-10T07:40:46.227Z,99245.16
2019-02-10T07:43:20.641Z,99238.27
2019-02-10T07:46:01.008Z,99227.53
2019-02-10T07:48:42.058Z,99217.58
2019-02-10T07:51:29.818Z,99213.69
2019-02-10T07:54:07.157Z,99214.98
2019-02-10T07:56:38.663Z,99214.47
2019-02-10T07:59:22.518Z,99205.85
2019-02-10T08:01:56.644Z,99192.87
2019-02-10T08:05:01.629Z,99188.13
2019-02-10T08:07:48.407Z,99189.51
2019-02-10T08:10:29.368Z,99176.55
2019-02-10T08:13:00.871Z,99180.69
2019-02-10T08:15:35.469Z,99175.12
2019-02-10T08:18:12.868Z,99174.61
2019-02-10T08:20:56.609Z,99176.28
2019-02-10T08:23:31.128Z,99165.84
2019-02-10T08:26:37.473Z,99167.71
2019-02-10T08:29:20.770Z,99158.19
2019-02-10T08:32:27.440Z,99159.09
2019-02-10T08:35:27.397Z,99157.79
2019-02-10T08:38:01.687Z,99161.72
2019-02-10T08:40:35.947Z,99159.50
2019-02-10T08:43:07.523Z,99158.59
2019-02-10T08:45:45.052Z,99154.97
2019-02-10T08:48:22.372Z,99134.37
2019-02-10T08:51:10.311Z,99149.54
2019-02-10T08:53:38.843Z,99148.23
2019-02-10T08:56:07.564Z,99144.65
2019-02-10T08:58:36.015Z,99140.80
2019-02-10T09:01:04.719Z,99137.05
2019-02-10T09:03:33.169Z,99134.55
2019-02-10T09:06:01.624Z,99129.40
2019-02-10T09:08:30.221Z,99130.27
2019-02-10T09:10:58.704Z,99122.08
2019-02-10T09:13:27.175Z,99119.50
2019-02-10T09:15:55.727Z,99110.45
2019-02-10T09:18:24.186Z,99106.28
2019-02-10T09:20:52.642Z,99101.50
2019-02-10T09:23:21.148Z,99105.48
2019-02-10T09:25:49.598Z,99090.12
2019-02-10T09:28:18.057Z,99083.86
2019-02-10T09:30:46.568Z,99082.70
2019-02-10T09:33:15.029Z,99080.68
2019-02-10T09:35:43.477Z,99072.13
2019-02-10T09:38:12.027Z,99069.25
2019-02-10T09:40:40.504Z,99060.16
2019-02-10T09:43:08.971Z,99062.27
2019-02-10T09:45:37.487Z,99057.28
2019-02-10T09:48:05.943Z,99059.84
2019-02-10T09:50:34.392Z,99047.30
2019-02-10T09:53:02.924Z,99041.76
2019-02-10T09:55:31.381Z,99045.44
2019-02-10T09:57:59.831Z,99044.12
2019-02-10T10:00:28.351Z,99031.97
2019-02-10T10:02:56.846Z,99023.10
2019-02-10T10:05:25.288Z,99028.23
2019-02-10T10:07:53.811Z,99019.75
2019-02-10T10:10:22.273Z,99020.44
2019-02-10T10:12:50.730Z,99007.55
2019-02-10T10:15:19.298Z,99003.87
2019-02-10T10:17:47.754Z,98998.56
2019-02-10T10:20:18.628Z,98989.80
2019-02-10T10:22:47.201Z,98977.84
2019-02-10T10:25:15.657Z,98971.13
2019-02-10T10:27:44.103Z,98974.25
2019-02-10T10:30:18.076Z,98961.12
2019-02-10T10:32:46.535Z,98952.53
2019-02-10T10:35:15.055Z,98938.92
2019-02-10T10:37:43.635Z,98929.64
2019-02-10T10:40:12.601Z,98922.95
2019-02-10T10:42:41.130Z,98920.56
2019-02-10T10:45:14.303Z,98898.37
2019-02-10T10:47:42.937Z,98891.31
2019-02-10T10:50:13.160Z,98880.85
2019-02-10T10:52:41.739Z,98877.87
2019-02-10T10:55:11.829Z,98859.48
2019-02-10T10:57:40.479Z,98865.17
2019-02-10T11:00:15.920Z,98849.34
2019-02-10T11:02:44.436Z,98846.48
2019-02-10T11:05:14.869Z,98844.47
2019-02-10T11:07:43.547Z,98836.35
2019-02-10T11:10:13.405Z,98827.64
2019-02-10T11:12:41.926Z,98823.73
2019-02-10T11:15:12.789Z,98811.34
2019-02-10T11:17:41.244Z,98806.44
2019-02-10T11:20:11.596Z,98795.34
2019-02-10T11:22:40.063Z,98781.94
2019-02-10T11:25:10.563Z,98768.05
2019-02-10T11:27:39.078Z,98771.08
2019-02-10T11:30:12.445Z,98761.45
2019-02-10T11:32:40.906Z,98749.66
2019-02-10T11:35:10.163Z,98737.39
2019-02-10T11:37:38.781Z,98731.26
2019-02-10T11:40:13.803Z,98726.36
2019-02-10T11:42:42.421Z,98715.80
2019-02-10T11:45:13.020Z,98706.39
2019-02-10T11:47:42.618Z,98705.14
2019-02-10T11:50:12.840Z,98695.34
2019-02-10T11:52:41.363Z,98694.97
2019-02-10T11:55:11.322Z,98696.35
2019-02-10T11:57:39.913Z,98692.86
2019-02-10T12:00:16.426Z,98685.06
2019-02-10T12:02:44.971Z,98679.03
2019-02-10T12:05:13.500Z,98660.54
2019-02-10T12:07:45.530Z,98660.44
2019-02-10T12:10:14.332Z,98656.56
2019-02-10T12:12:42.946Z,98646.58
2019-02-10T12:15:12.980Z,98637.63
2019-02-10T12:17:41.432Z,98639.06
2019-02-10T12:20:12.894Z,98631.69
2019-02-10T12:22:49.658Z,98632.43
2019-02-10T12:25:11.817Z,98619.45
2019-02-10T12:27:41.114Z,98610.02
2019-02-10T12:30:14.942Z,98598.44
2019-02-10T12:32:43.472Z,98578.20
2019-02-10T12:35:12.585Z,98568.56
2019-02-10T12:37:41.110Z,98562.70
2019-02-10T12:40:11.011Z,98550.41
2019-02-10T12:42:39.681Z,98557.00
2019-02-10T12:45:10.607Z,98551.71
2019-02-10T12:47:39.135Z,98540.06
2019-02-10T12:50:15.565Z,98526.75
2019-02-10T12:52:44.021Z,98525.23
2019-02-10T12:55:15.127Z,98519.52
2019-02-10T12:57:43.707Z,98514.22
2019-02-10T13:00:19.903Z,98506.48
2019-02-10T13:02:48.576Z,98500.80
2019-02-10T13:05:17.242Z,98500.47
2019-02-10T13:07:45.704Z,98496.78
2019-02-10T13:10:18.350Z,98487.77
2019-02-10T13:12:47.082Z,98483.06
2019-02-10T13:15:15.610Z,98472.97
2019-02-10T13:17:44.117Z,98464.97
2019-02-10T13:20:15.819Z,98463.65
2019-02-10T13:22:44.345Z,98465.06
2019-02-10T13:25:15.856Z,98462.58
2019-02-10T13:27:44.372Z,98458.47
2019-02-10T13:30:15.346Z,98453.81
2019-02-10T13:32:43.810Z,98449.03
2019-02-10T13:35:12.566Z,98436.80
2019-02-10T13:37:41.043Z,98436.81
2019-02-10T13:40:18.186Z,98439.75
2019-02-10T13:42:46.713Z,98428.81
2019-02-10T13:45:15.370Z,98418.11
2019-02-10T13:47:43.833Z,98411.98
2019-02-10T13:50:21.344Z,98404.07
2019-02-10T13:52:49.819Z,98402.34
2019-02-10T13:55:18.333Z,98395.11
2019-02-10T13:57:46.845Z,98390.91
2019-02-10T14:00:20.903Z,98400.72
2019-02-10T14:02:49.373Z,98395.11
2019-02-10T14:05:17.890Z,98389.47
2019-02-10T14:07:46.373Z,98383.09
2019-02-10T14:10:15.991Z,98369.55
2019-02-10T14:12:44.806Z,98383.79
2019-02-10T14:15:15.329Z,98381.36
2019-02-10T14:17:43.860Z,98376.92
2019-02-10T14:20:20.170Z,98371.48
2019-02-10T14:22:48.630Z,98376.95
2019-02-10T14:25:17.115Z,98366.20
2019-02-10T14:27:45.771Z,98364.44
2019-02-10T14:30:19.747Z,98360.17
2019-02-10T14:32:48.203Z,98364.13
2019-02-10T14:35:16.721Z,98364.25
2019-02-10T14:37:45.265Z,98365.75
2019-02-10T14:40:13.889Z,98373.14
2019-02-10T14:42:42.828Z,98360.08
2019-02-10T14:45:13.422Z,98357.41
2019-02-10T14:47:41.891Z,98355.16
2019-02-10T14:50:16.297Z,98355.50
2019-02-10T14:52:44.853Z,98345.33
2019-02-10T14:55:13.530Z,98341.20
2019-02-10T14:57:42.081Z,98339.84
2019-02-10T15:00:13.583Z,98320.09
2019-02-10T15:02:42.040Z,98317.54
2019-02-10T15:05:10.755Z,98305.20
2019-02-10T15:07:39.339Z,98291.50
2019-02-10T15:10:14.648Z,98277.39
2019-02-10T15:12:43.145Z,98266.88
2019-02-10T15:15:12.555Z,98270.06
2019-02-10T15:17:42.086Z,98261.03
2019-02-10T15:20:12.287Z,98260.94
2019-02-10T15:22:40.877Z,98244.12
2019-02-10T15:25:11.488Z,98242.50
2019-02-10T15:27:40.028Z,98221.66
2019-02-10T15:30:11.213Z,98209.37
2019-02-10T15:32:39.697Z,98200.22
2019-02-10T15:35:08.471Z,98203.30
2019-02-10T15:37:37.386Z,98196.13
2019-02-10T15:40:10.255Z,98187.20
2019-02-10T15:42:38.730Z,98166.83
2019-02-10T15:45:10.558Z,98173.20
2019-02-10T15:47:39.024Z,98167.75
2019-02-10T15:50:10.119Z,98162.58
2019-02-10T15:52:39.106Z,98158.26
2019-02-10T15:55:10.368Z,98138.28
2019-02-10T15:57:38.850Z,98133.41
2019-02-10T16:00:25.150Z,98134.34
2019-02-10T16:02:53.677Z,98129.84
2019-02-10T16:05:22.230Z,98128.31
2019-02-10T16:07:50.772Z,98119.84
2019-02-10T16:10:19.241Z,98120.02
2019-02-10T16:12:47.706Z,98126.94
2019-02-10T16:15:17.796Z,98126.55
2019-02-10T16:17:47.086Z,98119.94
2019-02-10T16:20:16.146Z,98114.48
2019-02-10T16:22:44.702Z,98115.98
2019-02-10T16:25:13.201Z,98117.38
2019-02-10T16:27:41.737Z,98125.80
2019-02-10T16:30:17.856Z,98135.44
2019-02-10T16:32:50.059Z,98146.77
2019-02-10T16:35:16.753Z,98154.64
2019-02-10T16:37:45.284Z,98145.00
2019-02-10T16:40:18.612Z,98142.22
2019-02-10T16:42:47.158Z,98149.58
2019-02-10T16:45:15.780Z,98140.41
2019-02-10T16:47:44.238Z,98143.14
2019-02-10T16:50:14.112Z,98140.52
2019-02-10T16:52:42.756Z,98143.77
2019-02-10T16:55:14.000Z,98143.38
2019-02-10T16:57:42.613Z,98145.70
2019-02-10T17:00:15.309Z,98138.38
2019-02-10T17:02:43.856Z,98134.91
2019-02-10T17:05:12.957Z,98129.67
2019-02-10T17:07:41.500Z,98104.38
2019-02-10T17:10:17.946Z,98143.08
2019-02-10T17:12:46.441Z,98172.70
2019-02-10T17:15:15.055Z,98170.30
2019-02-10T17:17:43.578Z,98117.30
2019-02-10T17:20:13.242Z,98136.97
2019-02-10T17:22:41.867Z,98139.59
2019-02-10T17:25:13.312Z,98131.72
2019-02-10T17:27:41.931Z,98167.48
2019-02-10T17:30:13.153Z,98119.92
2019-02-10T17:32:41.756Z,98138.83
2019-02-10T17:35:12.049Z,98168.60
2019-02-10T17:37:40.750Z,98151.17
2019-02-10T17:40:12.346Z,98111.07
2019-02-10T17:42:40.903Z,98117.33
2019-02-10T17:45:10.425Z,98129.20
2019-02-10T17:47:39.039Z,98149.80
2019-02-10T17:50:12.389Z,98152.97
2019-02-10T17:52:40.854Z,98150.50
2019-02-10T17:55:11.901Z,98136.36
2019-02-10T17:57:45.053Z,98116.94
2019-02-10T18:00:16.131Z,98111.85
2019-02-10T18:02:47.278Z,98085.38
2019-02-10T18:05:15.731Z,98073.78
2019-02-10T18:07:44.204Z,98086.59
2019-02-10T18:10:16.000Z,98083.12
2019-02-10T18:12:44.565Z,98078.42
2019-02-10T18:15:14.767Z,98082.43
2019-02-10T18:17:53.653Z,98053.30
2019-02-10T18:20:23.854Z,98046.06
2019-02-10T18:23:05.783Z,98087.80
2019-02-10T18:25:38.409Z,98070.92
2019-02-10T18:28:13.996Z,98088.96
2019-02-10T18:30:44.303Z,98088.20
2019-02-10T18:33:17.457Z,98095.67
2019-02-10T18:35:50.901Z,98090.97
2019-02-10T18:38:21.056Z,98101.98
2019-02-10T18:40:56.686Z,98106.84
2019-02-10T18:43:26.826Z,98093.39
2019-02-10T18:46:09.301Z,98097.09
2019-02-10T18:48:42.396Z,98084.55
2019-02-10T18:51:12.537Z,98111.27
2019-02-10T18:53:49.084Z,98110.12
2019-02-10T18:56:31.035Z,98106.73
2019-02-10T18:59:13.365Z,98110.35
2019-02-10T19:01:45.968Z,98093.05
2019-02-10T19:04:22.065Z,98088.35
2019-02-10T19:06:54.598Z,98088.35
2019-02-10T19:09:36.554Z,98076.72
2019-02-10T19:12:15.491Z,98066.25
2019-02-10T19:14:46.948Z,98055.93
2019-02-10T19:17:17.126Z,98050.84
2019-02-10T19:19:50.235Z,98040.53
2019-02-10T19:22:20.375Z,98039.22
2019-02-10T19:24:50.577Z,98024.81
2019-02-10T19:27:20.746Z,98019.58
2019-02-10T19:29:53.543Z,98019.69
2019-02-10T19:32:32.522Z,98016.23
2019-02-10T19:35:05.485Z,98005.38
2019-02-10T19:37:51.798Z,98011.53
2019-02-10T19:40:21.914Z,97997.67
2019-02-10T19:43:07.961Z,97973.80
2019-02-10T19:45:47.078Z,97970.50
2019-02-10T19:48:18.202Z,97991.59
2019-02-10T19:50:48.307Z,97986.24
2019-02-10T19:53:18.405Z,97991.79
2019-02-10T19:55:48.575Z,98000.64
2019-02-10T19:58:33.485Z,97996.87
2019-02-10T20:01:03.645Z,98004.44
2019-02-10T20:03:45.550Z,97993.28
2019-02-10T20:06:33.815Z,97993.36
2019-02-10T20:09:22.094Z,98000.52
2019-02-10T20:11:55.191Z,98010.20
2019-02-10T20:14:25.310Z,97999.97
2019-02-10T20:16:55.437Z,97993.05
2019-02-10T20:19:28.765Z,97994.92
2019-02-10T20:22:14.981Z,97988.84
2019-02-10T20:24:57.147Z,97986.23
2019-02-10T20:27:43.535Z,97986.50
2019-02-10T20:30:16.350Z,97992.97
2019-02-10T20:32:46.446Z,97989.13
2019-02-10T20:35:22.926Z,97989.36
2019-02-10T20:38:09.547Z,97978.16
2019-02-10T20:40:42.181Z,97972.78
2019-02-10T20:43:18.105Z,97971.92
2019-02-10T20:45:48.261Z,97963.34
2019-02-10T20:48:18.366Z,97962.27
2019-02-10T20:50:51.168Z,97961.10
2019-02-10T20:53:21.331Z,97968.88
2019-02-10T20:55:54.165Z,97968.72
2019-02-10T20:58:26.861Z,97966.48
2019-02-10T21:01:05.660Z,97960.67
2019-02-10T21:03:51.930Z,97963.12
2019-02-10T21:06:22.036Z,97959.05
2019-02-10T21:09:01.275Z,97963.73
2019-02-10T21:11:43.611Z,97956.27
2019-02-10T21:14:16.602Z,97949.17
2019-02-10T21:16:49.665Z,97933.84
2019-02-10T21:19:32.175Z,97929.38
2019-02-10T21:22:19.840Z,97926.75
2019-02-10T21:25:07.941Z,97917.20
2019-02-10T21:27:53.361Z,97914.66
2019-02-10T21:30:38.604Z,97909.52
2019-02-10T21:33:08.719Z,97912.13
2019-02-10T21:35:56.886Z,97909.12
2019-02-10T21:38:41.970Z,97905.66
2019-02-10T21:41:15.248Z,97902.12
2019-02-10T21:44:00.217Z,97902.58
2019-02-10T21:46:32.823Z,97904.44
2019-02-10T21:49:03.320Z,97903.59
2019-02-10T21:51:31.874Z,97903.29
2019-02-10T21:54:00.478Z,97895.05
2019-02-10T21:56:29.033Z,97888.13
2019-02-10T21:58:57.601Z,97880.47
2019-02-10T22:01:26.135Z,97883.25
2019-02-10T22:03:54.604Z,97881.64
2019-02-10T22:06:23.075Z,97890.80
2019-02-10T22:08:51.728Z,97896.58
2019-02-10T22:11:20.186Z,97893.66
2019-02-10T22:13:48.665Z,97902.44
2019-02-10T22:16:17.196Z,97898.05
2019-02-10T22:18:45.674Z,97895.89
2019-02-10T22:21:14.147Z,97895.35
2019-02-10T22:23:42.679Z,97897.97
2019-02-10T22:26:11.137Z,97889.73
2019-02-10T22:28:40.059Z,97883.27
2019-02-10T22:31:08.652Z,97881.87
2019-02-10T22:33:39.773Z,97876.64
2019-02-10T22:36:08.316Z,97874.41
2019-02-10T22:38:36.851Z,97878.25
2019-02-10T22:41:05.333Z,97881.64
2019-02-10T22:43:33.832Z,97874.93
2019-02-10T22:46:02.468Z,97884.02
2019-02-10T22:48:30.929Z,97887.74
2019-02-10T22:50:59.443Z,97892.44
2019-02-10T22:53:27.993Z,97892.27
2019-02-10T22:55:56.470Z,97892.66
2019-02-10T22:58:24.960Z,97898.49
2019-02-10T23:01:00.347Z,97900.37
2019-02-10T23:03:28.880Z,97901.89
2019-02-10T23:05:57.463Z,97896.87
2019-02-10T23:08:26.027Z,97893.92
2019-02-10T23:10:54.645Z,97887.55
2019-02-10T23:13:23.120Z,97886.45
2019-02-10T23:15:51.735Z,97881.05
2019-02-10T23:18:20.255Z,97887.05
2019-02-10T23:20:48.721Z,97880.50
2019-02-10T23:23:17.267Z,97882.27
2019-02-10T23:25:45.750Z,97884.43
2019-02-10T23:28:14.228Z,97881.81
2019-02-10T23:30:43.031Z,97893.14
2019-02-10T23:33:11.558Z,97892.29
2019-02-10T23:35:40.093Z,97886.88
2019-02-10T23:38:08.668Z,97887.05
2019-02-10T23:40:37.127Z,97888.45
2019-02-10T23:43:05.609Z,97886.75
2019-02-10T23:45:34.107Z,97886.67
2019-02-10T23:48:02.566Z,97886.75
2019-02-10T23:50:31.143Z,97889.37
2019-02-10T23:52:59.721Z,97888.36
2019-02-10T23:55:28.273Z,97881.26
2019-02-10T23:57:56.811Z,97878.55
